sensor_id;sensor_type;location;lat;lon;timestamp;P1;durP1;ratioP1;P2;durP2;ratioP2
3347;SDS011;1687;49.540;8.574;2023-05-07T00:01:45;5.97;;;3.13;;
3347;SDS011;1687;49.540;8.574;2023-05-07T00:04:11;8.43;;;3.17;;
3347;SDS011;1687;49.540;8.574;2023-05-07T00:06:38;5.13;;;2.73;;
3347;SDS011;1687;49.540;8.574;2023-05-07T00:09:04;5.17;;;3.17;;
3347;SDS011;1687;49.540;8.574;2023-05-07T00:11:29;12.40;;;3.40;;
3347;SDS011;1687;49.540;8.574;2023-05-07T00:13:55;5.73;;;3.03;;
3347;SDS011;1687;49.540;8.574;2023-05-07T00:16:21;8.50;;;3.40;;
3347;SDS011;1687;49.540;8.574;2023-05-07T00:18:47;6.33;;;3.83;;
3347;SDS011;1687;49.540;8.574;2023-05-07T00:21:13;5.70;;;3.03;;
3347;SDS011;1687;49.540;8.574;2023-05-07T00:23:38;5.50;;;3.13;;
3347;SDS011;1687;49.540;8.574;2023-05-07T00:26:04;4.70;;;2.70;;
3347;SDS011;1687;49.540;8.574;2023-05-07T00:28:30;4.10;;;2.90;;
3347;SDS011;1687;49.540;8.574;2023-05-07T00:30:55;4.37;;;2.60;;
3347;SDS011;1687;49.540;8.574;2023-05-07T00:33:21;4.47;;;2.87;;
3347;SDS011;1687;49.540;8.574;2023-05-07T00:35:47;3.70;;;2.67;;
3347;SDS011;1687;49.540;8.574;2023-05-07T00:38:13;6.47;;;3.70;;
3347;SDS011;1687;49.540;8.574;2023-05-07T00:40:39;15.23;;;4.20;;
3347;SDS011;1687;49.540;8.574;2023-05-07T00:43:05;5.13;;;3.70;;
3347;SDS011;1687;49.540;8.574;2023-05-07T00:45:31;6.40;;;3.50;;
3347;SDS011;1687;49.540;8.574;2023-05-07T00:47:59;9.53;;;3.20;;
3347;SDS011;1687;49.540;8.574;2023-05-07T00:50:26;6.63;;;3.33;;
3347;SDS011;1687;49.540;8.574;2023-05-07T00:52:53;7.80;;;3.20;;
3347;SDS011;1687;49.540;8.574;2023-05-07T00:55:20;4.60;;;2.83;;
3347;SDS011;1687;49.540;8.574;2023-05-07T00:57:47;5.23;;;3.23;;
3347;SDS011;1687;49.540;8.574;2023-05-07T01:00:13;6.17;;;3.40;;
3347;SDS011;1687;49.540;8.574;2023-05-07T01:02:39;6.97;;;3.53;;
3347;SDS011;1687;49.540;8.574;2023-05-07T01:05:05;5.33;;;3.10;;
3347;SDS011;1687;49.540;8.574;2023-05-07T01:07:34;4.93;;;2.97;;
3347;SDS011;1687;49.540;8.574;2023-05-07T01:10:02;6.47;;;4.13;;
3347;SDS011;1687;49.540;8.574;2023-05-07T01:12:29;5.00;;;3.23;;
3347;SDS011;1687;49.540;8.574;2023-05-07T01:14:56;9.50;;;3.00;;
3347;SDS011;1687;49.540;8.574;2023-05-07T01:17:22;6.30;;;3.27;;
3347;SDS011;1687;49.540;8.574;2023-05-07T01:19:48;13.63;;;3.30;;
3347;SDS011;1687;49.540;8.574;2023-05-07T01:22:15;6.93;;;3.13;;
3347;SDS011;1687;49.540;8.574;2023-05-07T01:25:04;4.50;;;3.00;;
3347;SDS011;1687;49.540;8.574;2023-05-07T01:27:31;9.60;;;3.47;;
3347;SDS011;1687;49.540;8.574;2023-05-07T01:29:58;5.43;;;3.40;;
3347;SDS011;1687;49.540;8.574;2023-05-07T01:32:29;7.30;;;4.00;;
3347;SDS011;1687;49.540;8.574;2023-05-07T01:35:02;7.03;;;2.93;;
3347;SDS011;1687;49.540;8.574;2023-05-07T01:37:32;12.00;;;3.60;;
3347;SDS011;1687;49.540;8.574;2023-05-07T01:39:59;9.30;;;3.20;;
3347;SDS011;1687;49.540;8.574;2023-05-07T01:42:26;6.00;;;3.80;;
3347;SDS011;1687;49.540;8.574;2023-05-07T01:44:53;15.80;;;3.63;;
3347;SDS011;1687;49.540;8.574;2023-05-07T01:47:19;14.70;;;3.70;;
3347;SDS011;1687;49.540;8.574;2023-05-07T01:49:46;5.63;;;3.67;;
3347;SDS011;1687;49.540;8.574;2023-05-07T01:52:12;5.03;;;3.23;;
3347;SDS011;1687;49.540;8.574;2023-05-07T01:54:39;8.20;;;3.80;;
3347;SDS011;1687;49.540;8.574;2023-05-07T01:57:04;6.07;;;3.30;;
3347;SDS011;1687;49.540;8.574;2023-05-07T01:59:30;21.30;;;3.57;;
3347;SDS011;1687;49.540;8.574;2023-05-07T02:01:56;8.40;;;3.70;;
3347;SDS011;1687;49.540;8.574;2023-05-07T02:04:21;13.37;;;3.80;;
3347;SDS011;1687;49.540;8.574;2023-05-07T02:06:47;8.53;;;4.23;;
3347;SDS011;1687;49.540;8.574;2023-05-07T02:09:13;7.50;;;3.60;;
3347;SDS011;1687;49.540;8.574;2023-05-07T02:11:39;9.93;;;5.20;;
3347;SDS011;1687;49.540;8.574;2023-05-07T02:14:05;5.80;;;3.80;;
3347;SDS011;1687;49.540;8.574;2023-05-07T02:16:31;5.77;;;4.20;;
3347;SDS011;1687;49.540;8.574;2023-05-07T02:18:57;6.10;;;3.60;;
3347;SDS011;1687;49.540;8.574;2023-05-07T02:21:23;8.50;;;4.40;;
3347;SDS011;1687;49.540;8.574;2023-05-07T02:23:50;7.50;;;4.20;;
3347;SDS011;1687;49.540;8.574;2023-05-07T02:26:15;6.80;;;3.87;;
3347;SDS011;1687;49.540;8.574;2023-05-07T02:28:41;10.00;;;3.70;;
3347;SDS011;1687;49.540;8.574;2023-05-07T02:31:07;6.83;;;4.20;;
3347;SDS011;1687;49.540;8.574;2023-05-07T02:33:32;6.67;;;3.97;;
3347;SDS011;1687;49.540;8.574;2023-05-07T02:36:06;5.20;;;4.00;;
3347;SDS011;1687;49.540;8.574;2023-05-07T02:38:36;8.50;;;3.80;;
3347;SDS011;1687;49.540;8.574;2023-05-07T02:41:02;6.20;;;4.27;;
3347;SDS011;1687;49.540;8.574;2023-05-07T02:43:28;7.87;;;4.70;;
3347;SDS011;1687;49.540;8.574;2023-05-07T02:46:02;10.70;;;4.97;;
3347;SDS011;1687;49.540;8.574;2023-05-07T02:48:29;6.87;;;4.00;;
3347;SDS011;1687;49.540;8.574;2023-05-07T02:50:55;7.83;;;5.00;;
3347;SDS011;1687;49.540;8.574;2023-05-07T02:53:20;7.27;;;4.57;;
3347;SDS011;1687;49.540;8.574;2023-05-07T02:55:46;7.63;;;4.13;;
3347;SDS011;1687;49.540;8.574;2023-05-07T02:58:12;8.77;;;4.90;;
3347;SDS011;1687;49.540;8.574;2023-05-07T03:00:37;8.53;;;4.40;;
3347;SDS011;1687;49.540;8.574;2023-05-07T03:03:03;7.13;;;4.20;;
3347;SDS011;1687;49.540;8.574;2023-05-07T03:05:29;6.83;;;4.17;;
3347;SDS011;1687;49.540;8.574;2023-05-07T03:07:55;6.53;;;3.83;;
3347;SDS011;1687;49.540;8.574;2023-05-07T03:10:20;7.10;;;4.20;;
3347;SDS011;1687;49.540;8.574;2023-05-07T03:12:46;7.43;;;4.97;;
3347;SDS011;1687;49.540;8.574;2023-05-07T03:15:12;6.10;;;4.27;;
3347;SDS011;1687;49.540;8.574;2023-05-07T03:17:38;6.30;;;3.90;;
3347;SDS011;1687;49.540;8.574;2023-05-07T03:20:04;18.10;;;5.17;;
3347;SDS011;1687;49.540;8.574;2023-05-07T03:22:30;7.53;;;4.30;;
3347;SDS011;1687;49.540;8.574;2023-05-07T03:24:56;7.83;;;4.10;;
3347;SDS011;1687;49.540;8.574;2023-05-07T03:27:22;8.27;;;4.30;;
3347;SDS011;1687;49.540;8.574;2023-05-07T03:29:48;6.57;;;3.93;;
3347;SDS011;1687;49.540;8.574;2023-05-07T03:32:13;7.97;;;4.90;;
3347;SDS011;1687;49.540;8.574;2023-05-07T03:34:39;7.63;;;4.63;;
3347;SDS011;1687;49.540;8.574;2023-05-07T03:37:05;10.33;;;4.40;;
3347;SDS011;1687;49.540;8.574;2023-05-07T03:39:31;5.70;;;3.43;;
3347;SDS011;1687;49.540;8.574;2023-05-07T03:41:57;4.80;;;3.03;;
3347;SDS011;1687;49.540;8.574;2023-05-07T03:44:23;9.33;;;4.13;;
3347;SDS011;1687;49.540;8.574;2023-05-07T03:46:48;7.70;;;4.10;;
3347;SDS011;1687;49.540;8.574;2023-05-07T03:49:14;5.80;;;4.03;;
3347;SDS011;1687;49.540;8.574;2023-05-07T03:51:40;7.40;;;3.77;;
3347;SDS011;1687;49.540;8.574;2023-05-07T03:54:06;6.00;;;4.00;;
3347;SDS011;1687;49.540;8.574;2023-05-07T03:56:32;8.53;;;4.40;;
3347;SDS011;1687;49.540;8.574;2023-05-07T03:58:58;6.80;;;4.20;;
3347;SDS011;1687;49.540;8.574;2023-05-07T04:01:23;5.03;;;3.40;;
3347;SDS011;1687;49.540;8.574;2023-05-07T04:03:49;6.43;;;3.90;;
3347;SDS011;1687;49.540;8.574;2023-05-07T04:06:18;5.00;;;3.30;;
3347;SDS011;1687;49.540;8.574;2023-05-07T04:08:43;7.10;;;4.70;;
3347;SDS011;1687;49.540;8.574;2023-05-07T04:11:09;9.03;;;4.70;;
3347;SDS011;1687;49.540;8.574;2023-05-07T04:13:35;7.13;;;3.80;;
3347;SDS011;1687;49.540;8.574;2023-05-07T04:16:04;8.40;;;4.57;;
3347;SDS011;1687;49.540;8.574;2023-05-07T04:18:30;9.17;;;5.17;;
3347;SDS011;1687;49.540;8.574;2023-05-07T04:20:56;7.27;;;4.50;;
3347;SDS011;1687;49.540;8.574;2023-05-07T04:23:21;7.37;;;4.40;;
3347;SDS011;1687;49.540;8.574;2023-05-07T04:25:47;8.83;;;4.47;;
3347;SDS011;1687;49.540;8.574;2023-05-07T04:28:13;7.93;;;4.93;;
3347;SDS011;1687;49.540;8.574;2023-05-07T04:30:39;7.30;;;4.37;;
3347;SDS011;1687;49.540;8.574;2023-05-07T04:33:06;17.70;;;4.20;;
3347;SDS011;1687;49.540;8.574;2023-05-07T04:35:32;9.10;;;4.90;;
3347;SDS011;1687;49.540;8.574;2023-05-07T04:37:57;7.27;;;4.70;;
3347;SDS011;1687;49.540;8.574;2023-05-07T04:40:23;6.97;;;4.90;;
3347;SDS011;1687;49.540;8.574;2023-05-07T04:42:49;6.07;;;4.10;;
3347;SDS011;1687;49.540;8.574;2023-05-07T04:45:15;7.60;;;4.90;;
3347;SDS011;1687;49.540;8.574;2023-05-07T04:47:40;8.70;;;5.07;;
3347;SDS011;1687;49.540;8.574;2023-05-07T04:50:06;7.73;;;4.73;;
3347;SDS011;1687;49.540;8.574;2023-05-07T04:52:33;7.70;;;4.20;;
3347;SDS011;1687;49.540;8.574;2023-05-07T04:54:59;7.97;;;4.40;;
3347;SDS011;1687;49.540;8.574;2023-05-07T04:57:25;7.73;;;4.30;;
3347;SDS011;1687;49.540;8.574;2023-05-07T04:59:52;14.93;;;4.70;;
3347;SDS011;1687;49.540;8.574;2023-05-07T05:02:18;8.13;;;4.50;;
3347;SDS011;1687;49.540;8.574;2023-05-07T05:04:44;12.93;;;5.60;;
3347;SDS011;1687;49.540;8.574;2023-05-07T05:07:10;6.27;;;3.83;;
3347;SDS011;1687;49.540;8.574;2023-05-07T05:09:36;7.60;;;4.50;;
3347;SDS011;1687;49.540;8.574;2023-05-07T05:12:02;6.97;;;4.57;;
3347;SDS011;1687;49.540;8.574;2023-05-07T05:14:28;6.37;;;3.17;;
3347;SDS011;1687;49.540;8.574;2023-05-07T05:16:54;6.40;;;3.83;;
3347;SDS011;1687;49.540;8.574;2023-05-07T05:19:20;7.83;;;4.20;;
3347;SDS011;1687;49.540;8.574;2023-05-07T05:21:45;7.20;;;4.17;;
3347;SDS011;1687;49.540;8.574;2023-05-07T05:24:11;5.33;;;4.13;;
3347;SDS011;1687;49.540;8.574;2023-05-07T05:26:37;5.77;;;3.80;;
3347;SDS011;1687;49.540;8.574;2023-05-07T05:29:02;9.60;;;4.23;;
3347;SDS011;1687;49.540;8.574;2023-05-07T05:31:28;6.93;;;3.90;;
3347;SDS011;1687;49.540;8.574;2023-05-07T05:33:54;7.50;;;4.23;;
3347;SDS011;1687;49.540;8.574;2023-05-07T05:36:19;5.47;;;3.63;;
3347;SDS011;1687;49.540;8.574;2023-05-07T05:38:45;5.73;;;4.00;;
3347;SDS011;1687;49.540;8.574;2023-05-07T05:41:11;5.40;;;3.80;;
3347;SDS011;1687;49.540;8.574;2023-05-07T05:43:36;6.20;;;3.93;;
3347;SDS011;1687;49.540;8.574;2023-05-07T05:46:02;7.70;;;3.60;;
3347;SDS011;1687;49.540;8.574;2023-05-07T05:48:29;6.90;;;4.37;;
3347;SDS011;1687;49.540;8.574;2023-05-07T05:50:55;5.30;;;3.30;;
3347;SDS011;1687;49.540;8.574;2023-05-07T05:53:21;5.63;;;3.30;;
3347;SDS011;1687;49.540;8.574;2023-05-07T05:55:47;10.03;;;3.93;;
3347;SDS011;1687;49.540;8.574;2023-05-07T05:58:12;7.50;;;4.03;;
3347;SDS011;1687;49.540;8.574;2023-05-07T06:00:40;6.87;;;4.03;;
3347;SDS011;1687;49.540;8.574;2023-05-07T06:03:05;7.40;;;3.30;;
3347;SDS011;1687;49.540;8.574;2023-05-07T06:05:31;5.07;;;3.73;;
3347;SDS011;1687;49.540;8.574;2023-05-07T06:07:57;10.23;;;4.80;;
3347;SDS011;1687;49.540;8.574;2023-05-07T06:10:22;6.83;;;4.17;;
3347;SDS011;1687;49.540;8.574;2023-05-07T06:12:49;8.23;;;4.23;;
3347;SDS011;1687;49.540;8.574;2023-05-07T06:15:14;11.23;;;4.20;;
3347;SDS011;1687;49.540;8.574;2023-05-07T06:17:40;7.17;;;4.40;;
3347;SDS011;1687;49.540;8.574;2023-05-07T06:20:06;5.97;;;4.03;;
3347;SDS011;1687;49.540;8.574;2023-05-07T06:22:32;7.80;;;3.83;;
3347;SDS011;1687;49.540;8.574;2023-05-07T06:24:58;6.37;;;3.93;;
3347;SDS011;1687;49.540;8.574;2023-05-07T06:27:24;5.30;;;3.73;;
3347;SDS011;1687;49.540;8.574;2023-05-07T06:29:50;8.23;;;3.60;;
3347;SDS011;1687;49.540;8.574;2023-05-07T06:32:15;10.33;;;3.00;;
3347;SDS011;1687;49.540;8.574;2023-05-07T06:34:42;8.00;;;4.00;;
3347;SDS011;1687;49.540;8.574;2023-05-07T06:37:07;5.00;;;3.07;;
3347;SDS011;1687;49.540;8.574;2023-05-07T06:39:33;4.40;;;3.00;;
3347;SDS011;1687;49.540;8.574;2023-05-07T06:42:02;4.30;;;2.83;;
3347;SDS011;1687;49.540;8.574;2023-05-07T06:44:29;8.27;;;3.13;;
3347;SDS011;1687;49.540;8.574;2023-05-07T06:46:55;4.80;;;2.80;;
3347;SDS011;1687;49.540;8.574;2023-05-07T06:49:22;5.50;;;2.90;;
3347;SDS011;1687;49.540;8.574;2023-05-07T06:51:47;4.40;;;2.30;;
3347;SDS011;1687;49.540;8.574;2023-05-07T06:54:13;5.10;;;2.80;;
3347;SDS011;1687;49.540;8.574;2023-05-07T06:56:39;3.40;;;2.40;;
3347;SDS011;1687;49.540;8.574;2023-05-07T06:59:06;9.90;;;3.20;;
3347;SDS011;1687;49.540;8.574;2023-05-07T07:01:31;9.77;;;3.43;;
3347;SDS011;1687;49.540;8.574;2023-05-07T07:03:57;5.43;;;2.53;;
3347;SDS011;1687;49.540;8.574;2023-05-07T07:06:23;4.40;;;2.73;;
3347;SDS011;1687;49.540;8.574;2023-05-07T07:08:49;3.47;;;2.33;;
3347;SDS011;1687;49.540;8.574;2023-05-07T07:11:14;6.20;;;2.43;;
3347;SDS011;1687;49.540;8.574;2023-05-07T07:13:40;4.03;;;2.60;;
3347;SDS011;1687;49.540;8.574;2023-05-07T07:16:07;6.40;;;2.83;;
3347;SDS011;1687;49.540;8.574;2023-05-07T07:18:33;12.23;;;2.60;;
3347;SDS011;1687;49.540;8.574;2023-05-07T07:20:59;4.70;;;3.00;;
3347;SDS011;1687;49.540;8.574;2023-05-07T07:23:26;4.27;;;2.57;;
3347;SDS011;1687;49.540;8.574;2023-05-07T07:25:51;5.70;;;2.70;;
3347;SDS011;1687;49.540;8.574;2023-05-07T07:28:17;9.17;;;2.80;;
3347;SDS011;1687;49.540;8.574;2023-05-07T07:30:46;12.60;;;2.17;;
3347;SDS011;1687;49.540;8.574;2023-05-07T07:33:11;4.60;;;2.43;;
3347;SDS011;1687;49.540;8.574;2023-05-07T07:35:37;4.47;;;2.97;;
3347;SDS011;1687;49.540;8.574;2023-05-07T07:38:03;10.00;;;2.67;;
3347;SDS011;1687;49.540;8.574;2023-05-07T07:40:28;4.23;;;2.50;;
3347;SDS011;1687;49.540;8.574;2023-05-07T07:42:56;4.90;;;2.73;;
3347;SDS011;1687;49.540;8.574;2023-05-07T07:45:22;5.73;;;4.03;;
3347;SDS011;1687;49.540;8.574;2023-05-07T07:47:48;4.83;;;3.30;;
3347;SDS011;1687;49.540;8.574;2023-05-07T07:50:14;6.30;;;3.00;;
3347;SDS011;1687;49.540;8.574;2023-05-07T07:52:39;6.30;;;2.93;;
3347;SDS011;1687;49.540;8.574;2023-05-07T07:55:06;7.23;;;3.30;;
3347;SDS011;1687;49.540;8.574;2023-05-07T07:57:32;4.07;;;2.67;;
3347;SDS011;1687;49.540;8.574;2023-05-07T07:59:58;4.27;;;2.47;;
3347;SDS011;1687;49.540;8.574;2023-05-07T08:02:24;4.47;;;2.70;;
3347;SDS011;1687;49.540;8.574;2023-05-07T08:04:50;5.80;;;3.07;;
3347;SDS011;1687;49.540;8.574;2023-05-07T08:07:15;3.20;;;2.20;;
3347;SDS011;1687;49.540;8.574;2023-05-07T08:09:43;6.53;;;2.60;;
3347;SDS011;1687;49.540;8.574;2023-05-07T08:12:09;5.20;;;3.20;;
3347;SDS011;1687;49.540;8.574;2023-05-07T08:14:35;4.77;;;2.67;;
3347;SDS011;1687;49.540;8.574;2023-05-07T08:17:02;4.90;;;2.60;;
3347;SDS011;1687;49.540;8.574;2023-05-07T08:19:28;5.47;;;3.03;;
3347;SDS011;1687;49.540;8.574;2023-05-07T08:21:54;5.50;;;2.67;;
3347;SDS011;1687;49.540;8.574;2023-05-07T08:24:20;4.33;;;2.53;;
3347;SDS011;1687;49.540;8.574;2023-05-07T08:26:46;6.13;;;2.43;;
3347;SDS011;1687;49.540;8.574;2023-05-07T08:29:12;8.10;;;3.23;;
3347;SDS011;1687;49.540;8.574;2023-05-07T08:31:37;3.83;;;2.40;;
3347;SDS011;1687;49.540;8.574;2023-05-07T08:34:06;4.13;;;2.93;;
3347;SDS011;1687;49.540;8.574;2023-05-07T08:36:32;4.97;;;2.70;;
3347;SDS011;1687;49.540;8.574;2023-05-07T08:38:58;5.67;;;2.73;;
3347;SDS011;1687;49.540;8.574;2023-05-07T08:41:24;6.37;;;3.63;;
3347;SDS011;1687;49.540;8.574;2023-05-07T08:43:51;4.50;;;2.60;;
3347;SDS011;1687;49.540;8.574;2023-05-07T08:46:18;2.97;;;2.23;;
3347;SDS011;1687;49.540;8.574;2023-05-07T08:48:49;3.77;;;1.93;;
3347;SDS011;1687;49.540;8.574;2023-05-07T08:51:17;3.07;;;2.03;;
3347;SDS011;1687;49.540;8.574;2023-05-07T08:53:45;4.63;;;2.63;;
3347;SDS011;1687;49.540;8.574;2023-05-07T08:56:14;3.53;;;2.43;;
3347;SDS011;1687;49.540;8.574;2023-05-07T08:58:41;5.60;;;3.00;;
3347;SDS011;1687;49.540;8.574;2023-05-07T09:01:12;4.03;;;2.70;;
3347;SDS011;1687;49.540;8.574;2023-05-07T09:03:41;4.77;;;3.33;;
3347;SDS011;1687;49.540;8.574;2023-05-07T09:06:10;7.80;;;3.37;;
3347;SDS011;1687;49.540;8.574;2023-05-07T09:08:36;3.60;;;2.63;;
3347;SDS011;1687;49.540;8.574;2023-05-07T09:11:02;5.47;;;3.17;;
3347;SDS011;1687;49.540;8.574;2023-05-07T09:13:28;3.90;;;2.33;;
3347;SDS011;1687;49.540;8.574;2023-05-07T09:15:55;3.53;;;2.63;;
3347;SDS011;1687;49.540;8.574;2023-05-07T09:18:21;4.00;;;2.37;;
3347;SDS011;1687;49.540;8.574;2023-05-07T09:20:49;6.63;;;2.60;;
3347;SDS011;1687;49.540;8.574;2023-05-07T09:23:15;3.70;;;2.50;;
3347;SDS011;1687;49.540;8.574;2023-05-07T09:25:41;3.93;;;2.80;;
3347;SDS011;1687;49.540;8.574;2023-05-07T09:28:07;4.00;;;2.43;;
3347;SDS011;1687;49.540;8.574;2023-05-07T09:30:34;4.47;;;2.80;;
3347;SDS011;1687;49.540;8.574;2023-05-07T09:33:01;2.90;;;2.27;;
3347;SDS011;1687;49.540;8.574;2023-05-07T09:35:29;4.10;;;2.30;;
3347;SDS011;1687;49.540;8.574;2023-05-07T09:37:56;5.20;;;3.03;;
3347;SDS011;1687;49.540;8.574;2023-05-07T09:40:24;5.03;;;2.50;;
3347;SDS011;1687;49.540;8.574;2023-05-07T09:42:53;3.57;;;2.30;;
3347;SDS011;1687;49.540;8.574;2023-05-07T09:45:28;3.33;;;2.50;;
3347;SDS011;1687;49.540;8.574;2023-05-07T09:47:57;3.63;;;2.27;;
3347;SDS011;1687;49.540;8.574;2023-05-07T09:50:25;3.07;;;2.60;;
3347;SDS011;1687;49.540;8.574;2023-05-07T09:52:57;5.07;;;2.97;;
3347;SDS011;1687;49.540;8.574;2023-05-07T09:55:23;3.70;;;2.40;;
3347;SDS011;1687;49.540;8.574;2023-05-07T09:57:50;4.60;;;2.10;;
3347;SDS011;1687;49.540;8.574;2023-05-07T10:00:20;3.27;;;2.30;;
3347;SDS011;1687;49.540;8.574;2023-05-07T10:02:48;4.43;;;2.70;;
3347;SDS011;1687;49.540;8.574;2023-05-07T10:05:16;6.80;;;3.03;;
3347;SDS011;1687;49.540;8.574;2023-05-07T10:07:45;7.63;;;2.40;;
3347;SDS011;1687;49.540;8.574;2023-05-07T10:10:11;4.70;;;3.00;;
3347;SDS011;1687;49.540;8.574;2023-05-07T10:12:38;4.77;;;2.50;;
3347;SDS011;1687;49.540;8.574;2023-05-07T10:15:09;2.87;;;2.33;;
3347;SDS011;1687;49.540;8.574;2023-05-07T10:17:36;4.43;;;2.30;;
3347;SDS011;1687;49.540;8.574;2023-05-07T10:20:05;2.90;;;2.10;;
3347;SDS011;1687;49.540;8.574;2023-05-07T10:22:37;3.33;;;2.20;;
3347;SDS011;1687;49.540;8.574;2023-05-07T10:25:17;4.07;;;2.63;;
3347;SDS011;1687;49.540;8.574;2023-05-07T10:27:48;5.00;;;2.67;;
3347;SDS011;1687;49.540;8.574;2023-05-07T10:33:11;3.20;;;2.27;;
3347;SDS011;1687;49.540;8.574;2023-05-07T10:35:42;8.43;;;3.23;;
3347;SDS011;1687;49.540;8.574;2023-05-07T10:38:10;3.40;;;2.30;;
3347;SDS011;1687;49.540;8.574;2023-05-07T10:40:36;3.27;;;2.30;;
3347;SDS011;1687;49.540;8.574;2023-05-07T10:43:02;4.23;;;2.30;;
3347;SDS011;1687;49.540;8.574;2023-05-07T10:45:30;3.93;;;2.40;;
3347;SDS011;1687;49.540;8.574;2023-05-07T10:48:12;4.93;;;3.13;;
3347;SDS011;1687;49.540;8.574;2023-05-07T10:50:40;3.43;;;2.10;;
3347;SDS011;1687;49.540;8.574;2023-05-07T10:55:50;2.50;;;1.63;;
3347;SDS011;1687;49.540;8.574;2023-05-07T10:58:24;3.40;;;2.70;;
3347;SDS011;1687;49.540;8.574;2023-05-07T11:00:55;2.60;;;1.90;;
3347;SDS011;1687;49.540;8.574;2023-05-07T11:03:26;3.47;;;2.00;;
3347;SDS011;1687;49.540;8.574;2023-05-07T11:08:57;3.33;;;2.70;;
3347;SDS011;1687;49.540;8.574;2023-05-07T11:11:43;9.30;;;2.10;;
3347;SDS011;1687;49.540;8.574;2023-05-07T11:17:09;2.60;;;1.80;;
3347;SDS011;1687;49.540;8.574;2023-05-07T11:19:52;3.80;;;1.97;;
3347;SDS011;1687;49.540;8.574;2023-05-07T11:25:01;6.23;;;1.87;;
3347;SDS011;1687;49.540;8.574;2023-05-07T11:27:28;3.10;;;2.40;;
3347;SDS011;1687;49.540;8.574;2023-05-07T11:29:54;3.47;;;2.23;;
3347;SDS011;1687;49.540;8.574;2023-05-07T11:34:51;3.10;;;2.27;;
3347;SDS011;1687;49.540;8.574;2023-05-07T11:37:18;4.07;;;2.00;;
3347;SDS011;1687;49.540;8.574;2023-05-07T11:39:45;3.77;;;2.40;;
3347;SDS011;1687;49.540;8.574;2023-05-07T11:42:30;4.03;;;2.60;;
3347;SDS011;1687;49.540;8.574;2023-05-07T11:44:59;3.80;;;2.30;;
3347;SDS011;1687;49.540;8.574;2023-05-07T11:47:25;2.67;;;1.87;;
3347;SDS011;1687;49.540;8.574;2023-05-07T11:49:55;2.20;;;1.83;;
3347;SDS011;1687;49.540;8.574;2023-05-07T11:52:21;3.17;;;2.20;;
3347;SDS011;1687;49.540;8.574;2023-05-07T11:54:49;2.50;;;1.73;;
3347;SDS011;1687;49.540;8.574;2023-05-07T11:57:19;3.10;;;2.07;;
3347;SDS011;1687;49.540;8.574;2023-05-07T11:59:46;3.97;;;2.63;;
3347;SDS011;1687;49.540;8.574;2023-05-07T12:02:15;3.30;;;2.30;;
3347;SDS011;1687;49.540;8.574;2023-05-07T12:04:43;2.93;;;2.07;;
3347;SDS011;1687;49.540;8.574;2023-05-07T12:07:13;2.30;;;1.73;;
3347;SDS011;1687;49.540;8.574;2023-05-07T12:09:43;2.80;;;2.10;;
3347;SDS011;1687;49.540;8.574;2023-05-07T12:12:10;2.53;;;1.80;;
3347;SDS011;1687;49.540;8.574;2023-05-07T12:14:40;3.10;;;1.77;;
3347;SDS011;1687;49.540;8.574;2023-05-07T12:17:07;3.57;;;2.63;;
3347;SDS011;1687;49.540;8.574;2023-05-07T12:19:34;3.60;;;1.73;;
3347;SDS011;1687;49.540;8.574;2023-05-07T12:22:01;3.90;;;2.20;;
3347;SDS011;1687;49.540;8.574;2023-05-07T12:24:43;3.27;;;2.33;;
3347;SDS011;1687;49.540;8.574;2023-05-07T12:27:13;4.40;;;1.90;;
3347;SDS011;1687;49.540;8.574;2023-05-07T12:29:43;4.20;;;2.20;;
3347;SDS011;1687;49.540;8.574;2023-05-07T12:32:15;2.73;;;2.30;;
3347;SDS011;1687;49.540;8.574;2023-05-07T12:34:46;2.20;;;1.73;;
3347;SDS011;1687;49.540;8.574;2023-05-07T12:37:14;3.97;;;2.60;;
3347;SDS011;1687;49.540;8.574;2023-05-07T12:39:50;2.67;;;1.60;;
3347;SDS011;1687;49.540;8.574;2023-05-07T12:42:37;2.33;;;1.90;;
3347;SDS011;1687;49.540;8.574;2023-05-07T12:45:07;1.77;;;1.40;;
3347;SDS011;1687;49.540;8.574;2023-05-07T12:47:44;1.90;;;1.70;;
3347;SDS011;1687;49.540;8.574;2023-05-07T12:50:10;3.20;;;1.93;;
3347;SDS011;1687;49.540;8.574;2023-05-07T12:52:36;2.60;;;2.20;;
3347;SDS011;1687;49.540;8.574;2023-05-07T12:55:05;2.67;;;1.90;;
3347;SDS011;1687;49.540;8.574;2023-05-07T12:57:39;5.03;;;2.00;;
3347;SDS011;1687;49.540;8.574;2023-05-07T13:00:18;4.03;;;1.73;;
3347;SDS011;1687;49.540;8.574;2023-05-07T13:03:01;2.30;;;1.80;;
3347;SDS011;1687;49.540;8.574;2023-05-07T13:05:27;2.63;;;1.73;;
3347;SDS011;1687;49.540;8.574;2023-05-07T13:07:53;2.57;;;1.70;;
3347;SDS011;1687;49.540;8.574;2023-05-07T13:10:21;4.23;;;1.43;;
3347;SDS011;1687;49.540;8.574;2023-05-07T13:12:48;1.93;;;1.60;;
3347;SDS011;1687;49.540;8.574;2023-05-07T13:15:15;2.67;;;1.73;;
3347;SDS011;1687;49.540;8.574;2023-05-07T13:17:41;4.00;;;1.57;;
3347;SDS011;1687;49.540;8.574;2023-05-07T13:20:07;2.47;;;1.73;;
3347;SDS011;1687;49.540;8.574;2023-05-07T13:22:34;2.10;;;1.63;;
3347;SDS011;1687;49.540;8.574;2023-05-07T13:25:01;2.10;;;1.90;;
3347;SDS011;1687;49.540;8.574;2023-05-07T13:27:26;2.67;;;1.47;;
3347;SDS011;1687;49.540;8.574;2023-05-07T13:29:52;1.90;;;1.70;;
3347;SDS011;1687;49.540;8.574;2023-05-07T13:32:18;5.03;;;3.33;;
3347;SDS011;1687;49.540;8.574;2023-05-07T13:34:43;3.60;;;2.40;;
3347;SDS011;1687;49.540;8.574;2023-05-07T13:37:09;2.80;;;1.90;;
3347;SDS011;1687;49.540;8.574;2023-05-07T13:39:35;2.20;;;1.60;;
3347;SDS011;1687;49.540;8.574;2023-05-07T13:42:01;2.50;;;2.00;;
3347;SDS011;1687;49.540;8.574;2023-05-07T13:44:27;4.10;;;1.90;;
3347;SDS011;1687;49.540;8.574;2023-05-07T13:46:52;2.10;;;1.37;;
3347;SDS011;1687;49.540;8.574;2023-05-07T13:49:18;3.17;;;1.90;;
3347;SDS011;1687;49.540;8.574;2023-05-07T13:51:44;2.67;;;2.10;;
3347;SDS011;1687;49.540;8.574;2023-05-07T13:54:10;3.50;;;2.13;;
3347;SDS011;1687;49.540;8.574;2023-05-07T13:56:36;2.17;;;1.93;;
3347;SDS011;1687;49.540;8.574;2023-05-07T13:59:01;2.50;;;2.00;;
3347;SDS011;1687;49.540;8.574;2023-05-07T14:01:27;3.53;;;1.83;;
3347;SDS011;1687;49.540;8.574;2023-05-07T14:03:53;2.60;;;1.90;;
3347;SDS011;1687;49.540;8.574;2023-05-07T14:06:18;3.03;;;2.37;;
3347;SDS011;1687;49.540;8.574;2023-05-07T14:08:44;10.43;;;2.83;;
3347;SDS011;1687;49.540;8.574;2023-05-07T14:11:10;4.57;;;2.10;;
3347;SDS011;1687;49.540;8.574;2023-05-07T14:13:36;3.93;;;1.60;;
3347;SDS011;1687;49.540;8.574;2023-05-07T14:16:02;4.47;;;3.23;;
3347;SDS011;1687;49.540;8.574;2023-05-07T14:18:29;4.13;;;2.60;;
3347;SDS011;1687;49.540;8.574;2023-05-07T14:20:54;6.00;;;3.17;;
3347;SDS011;1687;49.540;8.574;2023-05-07T14:23:20;6.30;;;3.20;;
3347;SDS011;1687;49.540;8.574;2023-05-07T14:25:51;6.17;;;3.20;;
3347;SDS011;1687;49.540;8.574;2023-05-07T14:28:18;6.93;;;3.00;;
3347;SDS011;1687;49.540;8.574;2023-05-07T14:30:44;10.80;;;4.50;;
3347;SDS011;1687;49.540;8.574;2023-05-07T14:33:09;5.90;;;2.93;;
3347;SDS011;1687;49.540;8.574;2023-05-07T14:35:35;6.20;;;2.97;;
3347;SDS011;1687;49.540;8.574;2023-05-07T14:38:01;6.07;;;3.10;;
3347;SDS011;1687;49.540;8.574;2023-05-07T14:40:26;6.20;;;3.63;;
3347;SDS011;1687;49.540;8.574;2023-05-07T14:42:52;9.77;;;2.60;;
3347;SDS011;1687;49.540;8.574;2023-05-07T14:45:18;15.73;;;2.30;;
3347;SDS011;1687;49.540;8.574;2023-05-07T14:47:46;5.40;;;3.40;;
3347;SDS011;1687;49.540;8.574;2023-05-07T14:50:11;16.80;;;4.90;;
3347;SDS011;1687;49.540;8.574;2023-05-07T14:52:37;8.30;;;3.93;;
3347;SDS011;1687;49.540;8.574;2023-05-07T14:55:03;14.70;;;4.57;;
3347;SDS011;1687;49.540;8.574;2023-05-07T14:57:29;6.70;;;3.80;;
3347;SDS011;1687;49.540;8.574;2023-05-07T14:59:59;6.07;;;3.60;;
3347;SDS011;1687;49.540;8.574;2023-05-07T15:02:26;5.50;;;3.07;;
3347;SDS011;1687;49.540;8.574;2023-05-07T15:04:52;11.63;;;4.20;;
3347;SDS011;1687;49.540;8.574;2023-05-07T15:07:18;5.60;;;3.73;;
3347;SDS011;1687;49.540;8.574;2023-05-07T15:12:53;8.73;;;4.07;;
3347;SDS011;1687;49.540;8.574;2023-05-07T15:15:19;11.23;;;3.40;;
3347;SDS011;1687;49.540;8.574;2023-05-07T15:17:45;13.30;;;4.67;;
3347;SDS011;1687;49.540;8.574;2023-05-07T15:20:10;14.00;;;4.10;;
3347;SDS011;1687;49.540;8.574;2023-05-07T15:22:36;10.73;;;5.80;;
3347;SDS011;1687;49.540;8.574;2023-05-07T15:25:02;9.10;;;4.47;;
3347;SDS011;1687;49.540;8.574;2023-05-07T15:27:29;13.90;;;5.30;;
3347;SDS011;1687;49.540;8.574;2023-05-07T15:29:56;11.17;;;5.60;;
3347;SDS011;1687;49.540;8.574;2023-05-07T15:32:22;15.57;;;6.17;;
3347;SDS011;1687;49.540;8.574;2023-05-07T15:34:48;12.10;;;6.40;;